sensor_id;sensor_type;location;lat;lon;timestamp;P1;durP1;ratioP1;P2;durP2;ratioP2
13879;SDS011;7010;48.200;16.332;2023-02-21T00:00:14;1.77;;;1.35;;
13879;SDS011;7010;48.200;16.332;2023-02-21T00:03:02;2.00;;;1.75;;
13879;SDS011;7010;48.200;16.332;2023-02-21T00:05:47;1.15;;;1.13;;
13879;SDS011;7010;48.200;16.332;2023-02-21T00:08:33;1.73;;;1.48;;
13879;SDS011;7010;48.200;16.332;2023-02-21T00:11:18;1.85;;;1.38;;
13879;SDS011;7010;48.200;16.332;2023-02-21T00:14:03;1.10;;;1.00;;
13879;SDS011;7010;48.200;16.332;2023-02-21T00:16:49;1.17;;;1.13;;
13879;SDS011;7010;48.200;16.332;2023-02-21T00:19:36;1.73;;;1.50;;
13879;SDS011;7010;48.200;16.332;2023-02-21T00:22:21;1.38;;;1.27;;
13879;SDS011;7010;48.200;16.332;2023-02-21T00:25:07;1.15;;;1.08;;
13879;SDS011;7010;48.200;16.332;2023-02-21T00:27:52;1.70;;;1.15;;
13879;SDS011;7010;48.200;16.332;2023-02-21T00:30:38;2.30;;;1.77;;
13879;SDS011;7010;48.200;16.332;2023-02-21T00:33:23;1.95;;;1.70;;
13879;SDS011;7010;48.200;16.332;2023-02-21T00:36:14;1.40;;;1.27;;
13879;SDS011;7010;48.200;16.332;2023-02-21T00:39:00;1.23;;;1.15;;
13879;SDS011;7010;48.200;16.332;2023-02-21T00:41:46;1.15;;;1.10;;
13879;SDS011;7010;48.200;16.332;2023-02-21T00:44:32;2.33;;;1.33;;
13879;SDS011;7010;48.200;16.332;2023-02-21T00:47:17;1.35;;;1.25;;
13879;SDS011;7010;48.200;16.332;2023-02-21T00:50:03;1.30;;;1.25;;
13879;SDS011;7010;48.200;16.332;2023-02-21T00:52:50;1.75;;;1.35;;
13879;SDS011;7010;48.200;16.332;2023-02-21T00:55:36;1.10;;;1.10;;
13879;SDS011;7010;48.200;16.332;2023-02-21T00:58:21;1.50;;;1.40;;
13879;SDS011;7010;48.200;16.332;2023-02-21T01:01:07;2.15;;;1.48;;
13879;SDS011;7010;48.200;16.332;2023-02-21T01:03:52;1.73;;;1.30;;
13879;SDS011;7010;48.200;16.332;2023-02-21T01:06:38;1.85;;;1.67;;
13879;SDS011;7010;48.200;16.332;2023-02-21T01:09:25;2.03;;;1.40;;
13879;SDS011;7010;48.200;16.332;2023-02-21T01:12:10;2.38;;;1.55;;
13879;SDS011;7010;48.200;16.332;2023-02-21T01:14:55;1.48;;;1.38;;
13879;SDS011;7010;48.200;16.332;2023-02-21T01:17:41;1.50;;;1.40;;
13879;SDS011;7010;48.200;16.332;2023-02-21T01:20:26;1.48;;;1.38;;
13879;SDS011;7010;48.200;16.332;2023-02-21T01:23:11;1.33;;;1.30;;
13879;SDS011;7010;48.200;16.332;2023-02-21T01:25:58;1.83;;;1.65;;
13879;SDS011;7010;48.200;16.332;2023-02-21T01:28:46;1.38;;;1.27;;
13879;SDS011;7010;48.200;16.332;2023-02-21T01:31:32;1.88;;;1.70;;
13879;SDS011;7010;48.200;16.332;2023-02-21T01:34:17;1.75;;;1.65;;
13879;SDS011;7010;48.200;16.332;2023-02-21T01:37:03;1.70;;;1.60;;
13879;SDS011;7010;48.200;16.332;2023-02-21T01:39:48;1.05;;;1.05;;
13879;SDS011;7010;48.200;16.332;2023-02-21T01:42:35;0.80;;;0.80;;
13879;SDS011;7010;48.200;16.332;2023-02-21T01:48:30;2.20;;;1.60;;
13879;SDS011;7010;48.200;16.332;2023-02-21T01:51:19;1.30;;;1.20;;
13879;SDS011;7010;48.200;16.332;2023-02-21T01:54:08;1.55;;;1.40;;
13879;SDS011;7010;48.200;16.332;2023-02-21T01:56:54;1.20;;;1.20;;
13879;SDS011;7010;48.200;16.332;2023-02-21T01:59:44;1.15;;;1.13;;
13879;SDS011;7010;48.200;16.332;2023-02-21T02:02:32;1.33;;;1.20;;
13879;SDS011;7010;48.200;16.332;2023-02-21T02:05:23;1.60;;;1.50;;
13879;SDS011;7010;48.200;16.332;2023-02-21T02:08:11;1.75;;;1.60;;
13879;SDS011;7010;48.200;16.332;2023-02-21T02:11:01;2.15;;;1.13;;
13879;SDS011;7010;48.200;16.332;2023-02-21T02:13:57;1.13;;;1.02;;
13879;SDS011;7010;48.200;16.332;2023-02-21T02:16:39;1.80;;;1.42;;
13879;SDS011;7010;48.200;16.332;2023-02-21T02:25:47;1.33;;;1.23;;
13879;SDS011;7010;48.200;16.332;2023-02-21T02:28:38;1.40;;;1.30;;
13879;SDS011;7010;48.200;16.332;2023-02-21T02:37:16;1.92;;;1.70;;
13879;SDS011;7010;48.200;16.332;2023-02-21T02:39:51;1.90;;;1.52;;
13879;SDS011;7010;48.200;16.332;2023-02-21T02:42:28;1.67;;;1.35;;
13879;SDS011;7010;48.200;16.332;2023-02-21T02:45:04;1.52;;;1.42;;
13879;SDS011;7010;48.200;16.332;2023-02-21T02:47:41;1.83;;;1.58;;
13879;SDS011;7010;48.200;16.332;2023-02-21T02:50:14;0.90;;;0.90;;
13879;SDS011;7010;48.200;16.332;2023-02-21T02:52:49;1.70;;;1.60;;
13879;SDS011;7010;48.200;16.332;2023-02-21T02:55:23;2.03;;;1.45;;
13879;SDS011;7010;48.200;16.332;2023-02-21T02:57:58;1.10;;;1.10;;
13879;SDS011;7010;48.200;16.332;2023-02-21T03:00:27;1.30;;;1.20;;
13879;SDS011;7010;48.200;16.332;2023-02-21T03:03:00;3.72;;;1.67;;
13879;SDS011;7010;48.200;16.332;2023-02-21T03:05:59;1.77;;;1.50;;
13879;SDS011;7010;48.200;16.332;2023-02-21T03:08:42;1.60;;;1.50;;
13879;SDS011;7010;48.200;16.332;2023-02-21T03:11:20;1.30;;;1.20;;
13879;SDS011;7010;48.200;16.332;2023-02-21T03:13:50;1.70;;;1.60;;
13879;SDS011;7010;48.200;16.332;2023-02-21T03:16:23;2.50;;;1.50;;
13879;SDS011;7010;48.200;16.332;2023-02-21T03:18:55;1.27;;;1.10;;
13879;SDS011;7010;48.200;16.332;2023-02-21T03:21:30;3.10;;;1.85;;
13879;SDS011;7010;48.200;16.332;2023-02-21T03:24:03;2.33;;;1.63;;
13879;SDS011;7010;48.200;16.332;2023-02-21T03:26:34;0.95;;;0.95;;
13879;SDS011;7010;48.200;16.332;2023-02-21T03:29:05;9.75;;;1.40;;
13879;SDS011;7010;48.200;16.332;2023-02-21T03:31:35;3.03;;;1.42;;
13879;SDS011;7010;48.200;16.332;2023-02-21T03:34:09;1.38;;;1.27;;
13879;SDS011;7010;48.200;16.332;2023-02-21T03:36:39;1.60;;;1.50;;
13879;SDS011;7010;48.200;16.332;2023-02-21T03:39:08;1.15;;;1.15;;
13879;SDS011;7010;48.200;16.332;2023-02-21T03:41:37;1.38;;;1.27;;
13879;SDS011;7010;48.200;16.332;2023-02-21T03:44:05;1.95;;;1.75;;
13879;SDS011;7010;48.200;16.332;2023-02-21T03:46:33;1.27;;;1.13;;
13879;SDS011;7010;48.200;16.332;2023-02-21T03:49:05;2.63;;;1.65;;
13879;SDS011;7010;48.200;16.332;2023-02-21T03:51:33;1.30;;;1.15;;
13879;SDS011;7010;48.200;16.332;2023-02-21T03:54:03;1.17;;;1.08;;
13879;SDS011;7010;48.200;16.332;2023-02-21T03:56:31;2.00;;;1.77;;
13879;SDS011;7010;48.200;16.332;2023-02-21T03:59:07;3.72;;;1.10;;
13879;SDS011;7010;48.200;16.332;2023-02-21T04:01:36;1.73;;;1.38;;
13879;SDS011;7010;48.200;16.332;2023-02-21T04:04:04;1.70;;;1.42;;
13879;SDS011;7010;48.200;16.332;2023-02-21T04:06:32;3.65;;;1.67;;
13879;SDS011;7010;48.200;16.332;2023-02-21T04:09:00;1.55;;;1.40;;
13879;SDS011;7010;48.200;16.332;2023-02-21T04:11:30;3.65;;;1.75;;
13879;SDS011;7010;48.200;16.332;2023-02-21T04:13:59;1.25;;;1.20;;
13879;SDS011;7010;48.200;16.332;2023-02-21T04:16:27;1.48;;;1.38;;
13879;SDS011;7010;48.200;16.332;2023-02-21T04:18:55;1.38;;;1.25;;
13879;SDS011;7010;48.200;16.332;2023-02-21T04:21:24;1.20;;;1.10;;
13879;SDS011;7010;48.200;16.332;2023-02-21T04:23:52;1.30;;;1.25;;
13879;SDS011;7010;48.200;16.332;2023-02-21T04:26:22;1.70;;;1.60;;
13879;SDS011;7010;48.200;16.332;2023-02-21T04:28:50;2.45;;;1.70;;
13879;SDS011;7010;48.200;16.332;2023-02-21T04:31:18;1.90;;;1.30;;
13879;SDS011;7010;48.200;16.332;2023-02-21T04:33:47;7.32;;;1.58;;
13879;SDS011;7010;48.200;16.332;2023-02-21T04:36:24;3.70;;;1.73;;
13879;SDS011;7010;48.200;16.332;2023-02-21T04:38:53;1.45;;;1.15;;
13879;SDS011;7010;48.200;16.332;2023-02-21T04:41:23;1.42;;;1.40;;
13879;SDS011;7010;48.200;16.332;2023-02-21T04:43:52;5.07;;;1.65;;
13879;SDS011;7010;48.200;16.332;2023-02-21T04:46:20;2.00;;;1.65;;
13879;SDS011;7010;48.200;16.332;2023-02-21T04:48:49;1.60;;;1.50;;
13879;SDS011;7010;48.200;16.332;2023-02-21T04:51:19;1.48;;;1.38;;
13879;SDS011;7010;48.200;16.332;2023-02-21T04:53:49;1.50;;;1.40;;
13879;SDS011;7010;48.200;16.332;2023-02-21T04:56:19;1.73;;;1.63;;
13879;SDS011;7010;48.200;16.332;2023-02-21T04:58:50;2.78;;;1.48;;
13879;SDS011;7010;48.200;16.332;2023-02-21T05:01:19;1.55;;;1.45;;
13879;SDS011;7010;48.200;16.332;2023-02-21T05:03:48;3.45;;;2.13;;
13879;SDS011;7010;48.200;16.332;2023-02-21T05:06:17;4.60;;;1.52;;
13879;SDS011;7010;48.200;16.332;2023-02-21T05:08:46;2.58;;;1.65;;
13879;SDS011;7010;48.200;16.332;2023-02-21T05:11:14;1.45;;;1.35;;
13879;SDS011;7010;48.200;16.332;2023-02-21T05:13:43;1.88;;;1.63;;
13879;SDS011;7010;48.200;16.332;2023-02-21T05:16:13;2.50;;;1.60;;
13879;SDS011;7010;48.200;16.332;2023-02-21T05:18:42;4.00;;;1.70;;
13879;SDS011;7010;48.200;16.332;2023-02-21T05:21:12;1.85;;;1.75;;
13879;SDS011;7010;48.200;16.332;2023-02-21T05:23:42;3.03;;;1.77;;
13879;SDS011;7010;48.200;16.332;2023-02-21T05:26:22;1.70;;;1.48;;
13879;SDS011;7010;48.200;16.332;2023-02-21T05:28:51;3.20;;;1.73;;
13879;SDS011;7010;48.200;16.332;2023-02-21T05:31:22;2.92;;;1.50;;
13879;SDS011;7010;48.200;16.332;2023-02-21T05:33:50;2.08;;;1.60;;
13879;SDS011;7010;48.200;16.332;2023-02-21T05:36:18;5.00;;;1.63;;
13879;SDS011;7010;48.200;16.332;2023-02-21T05:38:50;4.72;;;1.90;;
13879;SDS011;7010;48.200;16.332;2023-02-21T05:41:21;1.85;;;1.75;;
13879;SDS011;7010;48.200;16.332;2023-02-21T05:43:53;2.67;;;1.42;;
13879;SDS011;7010;48.200;16.332;2023-02-21T05:46:23;3.08;;;1.77;;
13879;SDS011;7010;48.200;16.332;2023-02-21T05:48:54;2.53;;;2.05;;
13879;SDS011;7010;48.200;16.332;2023-02-21T05:51:24;1.45;;;1.35;;
13879;SDS011;7010;48.200;16.332;2023-02-21T05:53:53;2.75;;;1.63;;
13879;SDS011;7010;48.200;16.332;2023-02-21T05:56:21;1.65;;;1.52;;
13879;SDS011;7010;48.200;16.332;2023-02-21T05:58:50;4.78;;;1.67;;
13879;SDS011;7010;48.200;16.332;2023-02-21T06:01:18;1.75;;;1.33;;
13879;SDS011;7010;48.200;16.332;2023-02-21T06:03:48;1.67;;;1.50;;
13879;SDS011;7010;48.200;16.332;2023-02-21T06:06:16;1.60;;;1.50;;
13879;SDS011;7010;48.200;16.332;2023-02-21T06:08:45;1.73;;;1.60;;
13879;SDS011;7010;48.200;16.332;2023-02-21T06:11:14;1.60;;;1.50;;
13879;SDS011;7010;48.200;16.332;2023-02-21T06:13:49;2.58;;;1.73;;
13879;SDS011;7010;48.200;16.332;2023-02-21T06:16:18;1.65;;;1.55;;
13879;SDS011;7010;48.200;16.332;2023-02-21T06:18:49;2.85;;;1.60;;
13879;SDS011;7010;48.200;16.332;2023-02-21T06:21:19;2.20;;;1.75;;
13879;SDS011;7010;48.200;16.332;2023-02-21T06:23:47;2.65;;;1.55;;
13879;SDS011;7010;48.200;16.332;2023-02-21T06:26:16;1.85;;;1.70;;
13879;SDS011;7010;48.200;16.332;2023-02-21T06:28:45;2.70;;;2.17;;
13879;SDS011;7010;48.200;16.332;2023-02-21T06:31:14;1.73;;;1.63;;
13879;SDS011;7010;48.200;16.332;2023-02-21T06:33:43;3.50;;;1.98;;
13879;SDS011;7010;48.200;16.332;2023-02-21T06:36:14;1.67;;;1.55;;
13879;SDS011;7010;48.200;16.332;2023-02-21T06:38:44;2.45;;;1.85;;
13879;SDS011;7010;48.200;16.332;2023-02-21T06:41:14;2.50;;;1.85;;
13879;SDS011;7010;48.200;16.332;2023-02-21T06:43:43;2.13;;;1.92;;
13879;SDS011;7010;48.200;16.332;2023-02-21T06:46:14;3.03;;;2.13;;
13879;SDS011;7010;48.200;16.332;2023-02-21T06:48:43;3.15;;;1.95;;
13879;SDS011;7010;48.200;16.332;2023-02-21T06:51:13;2.35;;;2.00;;
13879;SDS011;7010;48.200;16.332;2023-02-21T06:53:42;3.33;;;2.00;;
13879;SDS011;7010;48.200;16.332;2023-02-21T06:56:12;2.28;;;1.90;;
13879;SDS011;7010;48.200;16.332;2023-02-21T06:58:40;2.80;;;1.85;;
13879;SDS011;7010;48.200;16.332;2023-02-21T07:01:08;1.88;;;1.75;;
13879;SDS011;7010;48.200;16.332;2023-02-21T07:03:37;3.85;;;1.88;;
13879;SDS011;7010;48.200;16.332;2023-02-21T07:06:08;1.60;;;1.50;;
13879;SDS011;7010;48.200;16.332;2023-02-21T07:08:38;2.95;;;1.98;;
13879;SDS011;7010;48.200;16.332;2023-02-21T07:11:09;2.08;;;1.77;;
13879;SDS011;7010;48.200;16.332;2023-02-21T07:13:38;3.83;;;1.83;;
13879;SDS011;7010;48.200;16.332;2023-02-21T07:16:06;2.55;;;1.88;;
13879;SDS011;7010;48.200;16.332;2023-02-21T07:18:34;3.28;;;1.95;;
13879;SDS011;7010;48.200;16.332;2023-02-21T07:21:03;2.55;;;2.08;;
13879;SDS011;7010;48.200;16.332;2023-02-21T07:23:31;2.22;;;1.77;;
13879;SDS011;7010;48.200;16.332;2023-02-21T07:26:01;2.38;;;2.17;;
13879;SDS011;7010;48.200;16.332;2023-02-21T07:28:29;5.90;;;2.72;;
13879;SDS011;7010;48.200;16.332;2023-02-21T07:30:57;2.58;;;2.10;;
13879;SDS011;7010;48.200;16.332;2023-02-21T07:33:26;2.88;;;2.50;;
13879;SDS011;7010;48.200;16.332;2023-02-21T07:35:54;3.92;;;2.55;;
13879;SDS011;7010;48.200;16.332;2023-02-21T07:38:23;1.98;;;1.80;;
13879;SDS011;7010;48.200;16.332;2023-02-21T07:40:53;2.08;;;1.88;;
13879;SDS011;7010;48.200;16.332;2023-02-21T07:43:23;2.08;;;1.88;;
13879;SDS011;7010;48.200;16.332;2023-02-21T07:45:52;3.50;;;2.20;;
13879;SDS011;7010;48.200;16.332;2023-02-21T07:48:20;2.80;;;2.10;;
13879;SDS011;7010;48.200;16.332;2023-02-21T07:50:49;2.50;;;2.30;;
13879;SDS011;7010;48.200;16.332;2023-02-21T07:53:17;3.63;;;2.55;;
13879;SDS011;7010;48.200;16.332;2023-02-21T07:55:46;6.00;;;2.95;;
13879;SDS011;7010;48.200;16.332;2023-02-21T07:58:14;3.45;;;2.33;;
13879;SDS011;7010;48.200;16.332;2023-02-21T08:00:47;5.75;;;2.53;;
13879;SDS011;7010;48.200;16.332;2023-02-21T08:03:16;2.40;;;2.15;;
13879;SDS011;7010;48.200;16.332;2023-02-21T08:05:44;3.22;;;2.38;;
13879;SDS011;7010;48.200;16.332;2023-02-21T08:08:13;2.92;;;2.58;;
13879;SDS011;7010;48.200;16.332;2023-02-21T08:10:42;6.32;;;2.60;;
13879;SDS011;7010;48.200;16.332;2023-02-21T08:13:10;3.50;;;2.42;;
13879;SDS011;7010;48.200;16.332;2023-02-21T08:15:38;3.50;;;3.13;;
13879;SDS011;7010;48.200;16.332;2023-02-21T08:18:12;2.78;;;2.30;;
13879;SDS011;7010;48.200;16.332;2023-02-21T08:20:44;4.35;;;2.70;;
13879;SDS011;7010;48.200;16.332;2023-02-21T08:23:12;3.72;;;2.80;;
13879;SDS011;7010;48.200;16.332;2023-02-21T08:25:42;3.42;;;2.58;;
13879;SDS011;7010;48.200;16.332;2023-02-21T08:28:11;4.60;;;2.67;;
13879;SDS011;7010;48.200;16.332;2023-02-21T08:30:40;2.85;;;2.33;;
13879;SDS011;7010;48.200;16.332;2023-02-21T08:33:08;4.07;;;2.50;;
13879;SDS011;7010;48.200;16.332;2023-02-21T08:35:38;2.92;;;2.53;;
13879;SDS011;7010;48.200;16.332;2023-02-21T08:38:06;3.38;;;2.58;;
13879;SDS011;7010;48.200;16.332;2023-02-21T08:40:36;4.05;;;2.58;;
13879;SDS011;7010;48.200;16.332;2023-02-21T08:43:04;2.92;;;2.63;;
13879;SDS011;7010;48.200;16.332;2023-02-21T08:45:33;2.88;;;2.60;;
13879;SDS011;7010;48.200;16.332;2023-02-21T08:48:01;4.53;;;3.20;;
13879;SDS011;7010;48.200;16.332;2023-02-21T08:50:30;2.58;;;2.38;;
13879;SDS011;7010;48.200;16.332;2023-02-21T08:53:00;3.55;;;2.60;;
13879;SDS011;7010;48.200;16.332;2023-02-21T08:55:28;3.53;;;2.25;;
13879;SDS011;7010;48.200;16.332;2023-02-21T08:57:56;4.20;;;3.20;;
13879;SDS011;7010;48.200;16.332;2023-02-21T09:00:24;2.83;;;2.20;;
13879;SDS011;7010;48.200;16.332;2023-02-21T09:02:54;2.25;;;2.00;;
13879;SDS011;7010;48.200;16.332;2023-02-21T09:05:24;2.28;;;2.10;;
13879;SDS011;7010;48.200;16.332;2023-02-21T09:07:54;3.47;;;2.13;;
13879;SDS011;7010;48.200;16.332;2023-02-21T09:10:26;4.70;;;2.25;;
13879;SDS011;7010;48.200;16.332;2023-02-21T09:12:55;2.65;;;2.33;;
13879;SDS011;7010;48.200;16.332;2023-02-21T09:15:23;4.63;;;2.55;;
13879;SDS011;7010;48.200;16.332;2023-02-21T09:17:52;2.67;;;2.45;;
13879;SDS011;7010;48.200;16.332;2023-02-21T09:20:22;5.13;;;2.65;;
13879;SDS011;7010;48.200;16.332;2023-02-21T09:22:51;3.25;;;2.10;;
13879;SDS011;7010;48.200;16.332;2023-02-21T09:25:20;3.03;;;2.10;;
13879;SDS011;7010;48.200;16.332;2023-02-21T09:27:51;3.55;;;2.63;;
13879;SDS011;7010;48.200;16.332;2023-02-21T09:30:21;4.50;;;2.88;;
13879;SDS011;7010;48.200;16.332;2023-02-21T09:32:52;2.92;;;2.50;;
13879;SDS011;7010;48.200;16.332;2023-02-21T09:35:21;4.05;;;2.85;;
13879;SDS011;7010;48.200;16.332;2023-02-21T09:37:50;3.30;;;2.47;;
13879;SDS011;7010;48.200;16.332;2023-02-21T09:40:21;2.47;;;2.28;;
13879;SDS011;7010;48.200;16.332;2023-02-21T09:42:58;3.13;;;2.80;;
13879;SDS011;7010;48.200;16.332;2023-02-21T09:45:29;2.25;;;2.13;;
13879;SDS011;7010;48.200;16.332;2023-02-21T09:47:59;2.70;;;2.50;;
13879;SDS011;7010;48.200;16.332;2023-02-21T09:50:31;3.03;;;2.30;;
13879;SDS011;7010;48.200;16.332;2023-02-21T09:53:06;2.75;;;2.42;;
13879;SDS011;7010;48.200;16.332;2023-02-21T09:55:36;3.47;;;2.67;;
13879;SDS011;7010;48.200;16.332;2023-02-21T09:58:10;2.00;;;1.80;;
13879;SDS011;7010;48.200;16.332;2023-02-21T10:00:39;5.88;;;2.40;;
13879;SDS011;7010;48.200;16.332;2023-02-21T10:03:25;4.15;;;2.60;;
13879;SDS011;7010;48.200;16.332;2023-02-21T10:06:06;5.78;;;3.25;;
13879;SDS011;7010;48.200;16.332;2023-02-21T10:08:41;3.70;;;2.30;;
13879;SDS011;7010;48.200;16.332;2023-02-21T10:11:20;6.78;;;2.45;;
13879;SDS011;7010;48.200;16.332;2023-02-21T10:14:00;2.40;;;2.08;;
13879;SDS011;7010;48.200;16.332;2023-02-21T10:16:33;2.53;;;2.20;;
13879;SDS011;7010;48.200;16.332;2023-02-21T10:19:07;2.65;;;2.45;;
13879;SDS011;7010;48.200;16.332;2023-02-21T10:21:43;2.40;;;2.20;;
13879;SDS011;7010;48.200;16.332;2023-02-21T10:24:15;2.80;;;2.30;;
13879;SDS011;7010;48.200;16.332;2023-02-21T10:26:47;2.20;;;2.10;;
13879;SDS011;7010;48.200;16.332;2023-02-21T10:29:23;7.28;;;2.70;;
13879;SDS011;7010;48.200;16.332;2023-02-21T10:31:54;3.58;;;2.58;;
13879;SDS011;7010;48.200;16.332;2023-02-21T10:34:28;3.38;;;2.53;;
13879;SDS011;7010;48.200;16.332;2023-02-21T10:37:00;3.67;;;2.53;;
13879;SDS011;7010;48.200;16.332;2023-02-21T10:39:32;2.78;;;2.55;;
13879;SDS011;7010;48.200;16.332;2023-02-21T10:42:04;2.03;;;1.92;;
13879;SDS011;7010;48.200;16.332;2023-02-21T10:44:33;3.00;;;2.42;;
13879;SDS011;7010;48.200;16.332;2023-02-21T10:47:03;2.72;;;2.00;;
13879;SDS011;7010;48.200;16.332;2023-02-21T10:49:43;3.92;;;2.80;;
13879;SDS011;7010;48.200;16.332;2023-02-21T10:52:17;2.70;;;2.50;;
13879;SDS011;7010;48.200;16.332;2023-02-21T10:54:59;18.70;;;3.53;;
13879;SDS011;7010;48.200;16.332;2023-02-21T10:57:29;2.53;;;2.38;;
13879;SDS011;7010;48.200;16.332;2023-02-21T11:00:01;2.30;;;2.10;;
13879;SDS011;7010;48.200;16.332;2023-02-21T11:02:36;3.63;;;2.38;;
13879;SDS011;7010;48.200;16.332;2023-02-21T11:05:11;2.63;;;2.42;;
13879;SDS011;7010;48.200;16.332;2023-02-21T11:07:53;2.13;;;1.98;;
13879;SDS011;7010;48.200;16.332;2023-02-21T11:10:29;2.83;;;2.58;;
13879;SDS011;7010;48.200;16.332;2023-02-21T11:13:12;3.13;;;2.70;;
13879;SDS011;7010;48.200;16.332;2023-02-21T11:15:43;2.63;;;2.40;;
13879;SDS011;7010;48.200;16.332;2023-02-21T11:18:14;3.15;;;2.00;;
13879;SDS011;7010;48.200;16.332;2023-02-21T11:20:45;2.38;;;2.17;;
13879;SDS011;7010;48.200;16.332;2023-02-21T11:23:17;2.95;;;2.42;;
13879;SDS011;7010;48.200;16.332;2023-02-21T11:25:48;2.30;;;2.00;;
13879;SDS011;7010;48.200;16.332;2023-02-21T11:28:23;1.95;;;1.85;;
13879;SDS011;7010;48.200;16.332;2023-02-21T11:31:04;3.22;;;2.17;;
13879;SDS011;7010;48.200;16.332;2023-02-21T11:33:36;3.58;;;2.13;;
13879;SDS011;7010;48.200;16.332;2023-02-21T11:36:08;2.45;;;1.98;;
13879;SDS011;7010;48.200;16.332;2023-02-21T11:38:42;2.58;;;2.10;;
13879;SDS011;7010;48.200;16.332;2023-02-21T11:41:17;2.65;;;2.20;;
13879;SDS011;7010;48.200;16.332;2023-02-21T11:43:49;4.25;;;2.33;;
13879;SDS011;7010;48.200;16.332;2023-02-21T11:46:36;2.58;;;2.10;;
13879;SDS011;7010;48.200;16.332;2023-02-21T11:49:11;1.90;;;1.73;;
13879;SDS011;7010;48.200;16.332;2023-02-21T11:51:48;2.33;;;2.13;;
13879;SDS011;7010;48.200;16.332;2023-02-21T11:54:18;2.40;;;2.20;;
13879;SDS011;7010;48.200;16.332;2023-02-21T11:56:51;3.15;;;2.55;;
13879;SDS011;7010;48.200;16.332;2023-02-21T11:59:33;1.90;;;1.80;;
13879;SDS011;7010;48.200;16.332;2023-02-21T12:02:25;2.38;;;1.92;;
13879;SDS011;7010;48.200;16.332;2023-02-21T12:05:17;2.08;;;1.90;;
13879;SDS011;7010;48.200;16.332;2023-02-21T12:08:03;2.25;;;2.05;;
13879;SDS011;7010;48.200;16.332;2023-02-21T12:10:46;1.73;;;1.63;;
13879;SDS011;7010;48.200;16.332;2023-02-21T12:13:23;2.08;;;1.60;;
13879;SDS011;7010;48.200;16.332;2023-02-21T12:16:00;5.22;;;2.00;;
13879;SDS011;7010;48.200;16.332;2023-02-21T12:18:45;2.35;;;1.80;;
13879;SDS011;7010;48.200;16.332;2023-02-21T12:21:31;1.38;;;1.33;;
13879;SDS011;7010;48.200;16.332;2023-02-21T12:24:11;1.98;;;1.73;;
13879;SDS011;7010;48.200;16.332;2023-02-21T12:26:54;1.77;;;1.67;;
13879;SDS011;7010;48.200;16.332;2023-02-21T12:29:32;1.63;;;1.52;;
13879;SDS011;7010;48.200;16.332;2023-02-21T12:32:17;2.35;;;2.15;;
13879;SDS011;7010;48.200;16.332;2023-02-21T12:35:01;1.85;;;1.40;;
13879;SDS011;7010;48.200;16.332;2023-02-21T12:37:40;1.80;;;1.70;;
13879;SDS011;7010;48.200;16.332;2023-02-21T12:40:18;1.50;;;1.40;;
13879;SDS011;7010;48.200;16.332;2023-02-21T12:45:50;1.70;;;1.48;;
13879;SDS011;7010;48.200;16.332;2023-02-21T12:48:28;1.63;;;1.52;;
13879;SDS011;7010;48.200;16.332;2023-02-21T12:51:12;1.63;;;1.52;;
13879;SDS011;7010;48.200;16.332;2023-02-21T12:53:46;0.95;;;0.95;;
13879;SDS011;7010;48.200;16.332;2023-02-21T12:56:20;2.03;;;1.45;;
13879;SDS011;7010;48.200;16.332;2023-02-21T12:58:53;1.40;;;1.30;;
13879;SDS011;7010;48.200;16.332;2023-02-21T13:01:29;1.25;;;1.23;;
13879;SDS011;7010;48.200;16.332;2023-02-21T13:04:03;1.60;;;1.50;;
13879;SDS011;7010;48.200;16.332;2023-02-21T13:06:42;1.10;;;0.98;;
13879;SDS011;7010;48.200;16.332;2023-02-21T13:09:18;2.75;;;1.30;;
13879;SDS011;7010;48.200;16.332;2023-02-21T13:11:54;1.08;;;1.08;;
13879;SDS011;7010;48.200;16.332;2023-02-21T13:14:27;1.23;;;1.23;;
13879;SDS011;7010;48.200;16.332;2023-02-21T13:17:00;1.38;;;1.27;;
13879;SDS011;7010;48.200;16.332;2023-02-21T13:19:31;0.90;;;0.90;;
13879;SDS011;7010;48.200;16.332;2023-02-21T13:25:28;1.30;;;1.27;;
13879;SDS011;7010;48.200;16.332;2023-02-21T13:28:05;1.15;;;1.15;;
13879;SDS011;7010;48.200;16.332;2023-02-21T13:30:44;2.38;;;1.08;;
13879;SDS011;7010;48.200;16.332;2023-02-21T13:33:22;2.20;;;1.70;;
13879;SDS011;7010;48.200;16.332;2023-02-21T13:35:54;1.10;;;0.90;;
13879;SDS011;7010;48.200;16.332;2023-02-21T13:38:26;1.02;;;1.02;;
13879;SDS011;7010;48.200;16.332;2023-02-21T13:41:06;1.42;;;1.33;;
13879;SDS011;7010;48.200;16.332;2023-02-21T13:43:36;1.67;;;1.40;;
13879;SDS011;7010;48.200;16.332;2023-02-21T13:49:44;1.00;;;1.00;;
13879;SDS011;7010;48.200;16.332;2023-02-21T13:55:23;1.27;;;1.17;;
13879;SDS011;7010;48.200;16.332;2023-02-21T14:01:16;0.90;;;0.90;;
13879;SDS011;7010;48.200;16.332;2023-02-21T14:07:11;2.22;;;1.20;;
13879;SDS011;7010;48.200;16.332;2023-02-21T14:09:39;3.50;;;1.10;;
13879;SDS011;7010;48.200;16.332;2023-02-21T14:12:08;1.15;;;1.15;;
13879;SDS011;7010;48.200;16.332;2023-02-21T14:14:43;0.98;;;0.88;;
13879;SDS011;7010;48.200;16.332;2023-02-21T14:17:13;1.27;;;1.17;;
13879;SDS011;7010;48.200;16.332;2023-02-21T14:19:42;2.65;;;1.25;;
13879;SDS011;7010;48.200;16.332;2023-02-21T14:22:16;1.58;;;1.48;;
13879;SDS011;7010;48.200;16.332;2023-02-21T14:24:51;0.88;;;0.88;;
13879;SDS011;7010;48.200;16.332;2023-02-21T14:27:33;0.88;;;0.88;;
13879;SDS011;7010;48.200;16.332;2023-02-21T14:30:21;0.98;;;0.98;;
13879;SDS011;7010;48.200;16.332;2023-02-21T14:32:57;2.15;;;1.30;;
13879;SDS011;7010;48.200;16.332;2023-02-21T14:35:35;1.35;;;1.25;;
13879;SDS011;7010;48.200;16.332;2023-02-21T14:38:06;1.27;;;1.15;;
13879;SDS011;7010;48.200;16.332;2023-02-21T14:40:45;1.63;;;1.38;;
13879;SDS011;7010;48.200;16.332;2023-02-21T14:46:31;1.40;;;1.30;;
13879;SDS011;7010;48.200;16.332;2023-02-21T14:49:38;2.47;;;1.63;;
13879;SDS011;7010;48.200;16.332;2023-02-21T14:55:34;1.50;;;1.15;;
13879;SDS011;7010;48.200;16.332;2023-02-21T15:01:20;1.58;;;1.40;;
13879;SDS011;7010;48.200;16.332;2023-02-21T15:04:04;1.20;;;1.15;;
13879;SDS011;7010;48.200;16.332;2023-02-21T15:06:39;1.58;;;1.10;;
13879;SDS011;7010;48.200;16.332;2023-02-21T15:09:11;2.45;;;1.60;;
13879;SDS011;7010;48.200;16.332;2023-02-21T15:11:44;3.65;;;1.77;;
13879;SDS011;7010;48.200;16.332;2023-02-21T15:14:15;1.50;;;1.40;;
13879;SDS011;7010;48.200;16.332;2023-02-21T15:16:54;1.35;;;1.10;;
13879;SDS011;7010;48.200;16.332;2023-02-21T15:19:26;1.38;;;1.27;;
13879;SDS011;7010;48.200;16.332;2023-02-21T15:22:07;2.13;;;1.40;;
13879;SDS011;7010;48.200;16.332;2023-02-21T15:28:00;1.45;;;1.27;;
13879;SDS011;7010;48.200;16.332;2023-02-21T15:30:39;1.85;;;1.65;;
13879;SDS011;7010;48.200;16.332;2023-02-21T15:33:15;1.35;;;1.25;;
13879;SDS011;7010;48.200;16.332;2023-02-21T15:35:48;4.03;;;1.92;;
13879;SDS011;7010;48.200;16.332;2023-02-21T15:38:20;1.38;;;1.27;;
13879;SDS011;7010;48.200;16.332;2023-02-21T15:40:58;1.30;;;1.20;;
13879;SDS011;7010;48.200;16.332;2023-02-21T15:43:32;2.08;;;1.88;;
13879;SDS011;7010;48.200;16.332;2023-02-21T15:46:05;9.55;;;1.98;;
13879;SDS011;7010;48.200;16.332;2023-02-21T15:48:37;1.70;;;1.60;;
13879;SDS011;7010;48.200;16.332;2023-02-21T15:51:06;2.20;;;1.45;;
13879;SDS011;7010;48.200;16.332;2023-02-21T15:53:37;2.40;;;1.75;;
13879;SDS011;7010;48.200;16.332;2023-02-21T15:56:15;2.25;;;1.67;;
13879;SDS011;7010;48.200;16.332;2023-02-21T16:04:44;1.70;;;1.60;;
13879;SDS011;7010;48.200;16.332;2023-02-21T16:07:15;1.58;;;1.48;;
13879;SDS011;7010;48.200;16.332;2023-02-21T16:09:49;2.58;;;1.33;;
13879;SDS011;7010;48.200;16.332;2023-02-21T16:12:26;3.15;;;1.55;;
13879;SDS011;7010;48.200;16.332;2023-02-21T16:14:57;1.85;;;1.73;;
13879;SDS011;7010;48.200;16.332;2023-02-21T16:17:29;1.70;;;1.60;;
13879;SDS011;7010;48.200;16.332;2023-02-21T16:20:01;1.48;;;1.38;;
13879;SDS011;7010;48.200;16.332;2023-02-21T16:22:39;1.70;;;1.60;;
13879;SDS011;7010;48.200;16.332;2023-02-21T16:25:29;1.85;;;1.55;;